Time;durP1;ratioP1;P1;durP2;ratioP2;P2;SDS_P1;SDS_P2;PMS_P1;PMS_P2;Temp;Humidity;BMP_temperature;BMP_pressure;BME280_temperature;BME280_humidity;BME280_pressure;Samples;Min_cycle;Max_cycle;Signal;HPM_P1;HPM_P2
2022/03/03 00:02:50;;;;;;;85.50;36.60;;;;;;;-3.69;64.80;99046.60;219237;1276;22681;-68
2022/03/03 00:07:53;;;;;;;83.10;35.80;;;;;;;-3.85;65.48;99048.64;218898;1276;22542;-69
2022/03/03 00:12:56;;;;;;;76.90;33.70;;;;;;;-4.02;65.91;99044.41;218869;1276;26573;-69
2022/03/03 00:17:58;;;;;;;79.50;35.00;;;;;;;-4.14;66.25;99036.58;218998;1277;22760;-69
2022/03/03 00:23:01;;;;;;;77.10;34.50;;;;;;;-4.22;66.49;99032.54;218867;1276;22741;-69
2022/03/03 00:28:04;;;;;;;77.00;34.10;;;;;;;-4.29;66.60;99032.86;218849;1276;22646;-69
2022/03/03 00:33:06;;;;;;;88.10;33.90;;;;;;;-4.34;66.78;99027.80;218832;1276;23987;-69
2022/03/03 00:38:10;;;;;;;89.00;36.30;;;;;;;-4.38;66.87;99029.48;218947;1277;26096;-68
2022/03/03 00:43:12;;;;;;;79.10;32.10;;;;;;;-4.40;66.86;99027.53;218982;1277;24314;-68
2022/03/03 00:48:15;;;;;;;68.80;28.60;;;;;;;-4.41;66.91;99017.89;218939;1276;25573;-69
2022/03/03 00:53:17;;;;;;;68.50;29.60;;;;;;;-4.46;66.72;99009.95;219097;1276;25641;-69
2022/03/03 00:58:23;;;;;;;70.10;30.70;;;;;;;-4.50;66.81;99011.77;218976;1277;25750;-69
2022/03/03 01:03:26;;;;;;;66.50;27.90;;;;;;;-4.50;67.10;99004.45;218965;1277;25602;-69
2022/03/03 01:08:39;;;;;;;65.10;27.80;;;;;;;-4.50;66.99;98999.90;219014;1277;23188;-68
2022/03/03 01:13:41;;;;;;;59.80;25.90;;;;;;;-4.52;67.07;98993.77;218717;1278;25596;-69
2022/03/03 01:18:44;;;;;;;63.20;28.40;;;;;;;-4.58;67.11;98993.93;218895;1277;25620;-68
2022/03/03 01:23:46;;;;;;;58.50;25.10;;;;;;;-4.60;67.45;98999.64;218979;1277;22692;-68
2022/03/03 01:28:49;;;;;;;55.20;25.90;;;;;;;-4.63;67.55;98995.02;218872;1278;23090;-69
2022/03/03 01:33:51;;;;;;;60.70;26.20;;;;;;;-4.68;67.57;98991.63;218802;1278;22618;-69
2022/03/03 01:38:54;;;;;;;65.20;27.80;;;;;;;-4.74;67.57;98988.66;218849;1277;22709;-69
2022/03/03 01:43:56;;;;;;;57.80;26.40;;;;;;;-4.80;67.73;98985.77;218702;1278;26689;-69
2022/03/03 01:49:00;;;;;;;62.60;27.20;;;;;;;-4.87;67.67;98983.54;218873;1277;22752;-69
2022/03/03 01:54:03;;;;;;;58.40;26.70;;;;;;;-4.92;67.70;98983.30;219031;1276;24121;-69
2022/03/03 01:59:06;;;;;;;64.60;28.70;;;;;;;-5.02;67.81;98981.88;218785;1278;22621;-68
2022/03/03 02:04:09;;;;;;;60.50;27.30;;;;;;;-5.10;67.89;98976.57;218799;1277;22643;-68
2022/03/03 02:09:11;;;;;;;64.60;28.50;;;;;;;-5.14;68.16;98976.64;218870;1277;22676;-69
2022/03/03 02:14:14;;;;;;;58.90;27.00;;;;;;;-5.13;68.31;98973.48;218836;1277;24248;-69
2022/03/03 02:19:21;;;;;;;56.90;25.80;;;;;;;-5.20;68.20;98964.79;218950;1277;24228;-69
2022/03/03 02:24:24;;;;;;;61.30;27.70;;;;;;;-5.25;68.33;98958.86;218979;1277;22940;-69
2022/03/03 02:29:28;;;;;;;61.70;27.80;;;;;;;-5.29;68.39;98956.80;218970;1277;24828;-68
2022/03/03 02:34:30;;;;;;;67.40;29.40;;;;;;;-5.29;68.67;98950.05;219197;1277;24795;-68
2022/03/03 02:39:33;;;;;;;49.40;24.80;;;;;;;-5.28;68.77;98942.83;218933;1277;24254;-69
2022/03/03 02:44:35;;;;;;;53.80;25.40;;;;;;;-5.32;69.00;98938.35;218854;1277;24972;-68
2022/03/03 02:49:38;;;;;;;61.80;27.90;;;;;;;-5.42;68.90;98932.11;218785;1277;24384;-67
2022/03/03 02:54:50;;;;;;;49.80;25.40;;;;;;;-5.53;69.06;98930.05;218997;1277;22768;-68
2022/03/03 03:00:05;;;;;;;51.60;23.40;;;;;;;-5.59;69.46;98930.65;219037;1276;22774;-68
2022/03/03 03:05:10;;;;;;;48.10;22.60;;;;;;;-5.63;69.75;98934.84;218990;1277;22652;-69
2022/03/03 03:10:12;;;;;;;48.90;23.10;;;;;;;-5.65;69.89;98933.05;219153;1277;22754;-68
2022/03/03 03:15:15;;;;;;;55.70;25.60;;;;;;;-5.67;69.98;98930.30;218990;1276;24290;-66
2022/03/03 03:20:18;;;;;;;49.00;22.90;;;;;;;-5.66;70.22;98925.65;218933;1277;24293;-69
2022/03/03 03:25:20;;;;;;;52.80;24.80;;;;;;;-5.62;70.38;98920.00;218876;1276;22697;-68
2022/03/03 03:30:23;;;;;;;61.90;25.50;;;;;;;-5.57;70.42;98924.93;218962;1277;22695;-69
2022/03/03 03:35:28;;;;;;;53.50;24.10;;;;;;;-5.49;70.48;98925.55;218970;1277;25234;-68
2022/03/03 03:40:34;;;;;;;56.10;25.10;;;;;;;-5.44;70.36;98915.45;219001;1276;22617;-69
2022/03/03 03:45:48;;;;;;;58.50;25.40;;;;;;;-5.42;70.51;98901.83;219023;1277;26020;-69
2022/03/03 03:50:51;;;;;;;54.40;24.90;;;;;;;-5.44;70.31;98903.61;218928;1277;22722;-68
2022/03/03 03:55:54;;;;;;;59.40;27.20;;;;;;;-5.49;70.31;98910.98;218965;1277;22679;-68
2022/03/03 04:00:56;;;;;;;54.60;25.90;;;;;;;-5.52;70.41;98902.66;218956;1277;22621;-69
2022/03/03 04:06:04;;;;;;;64.40;28.50;;;;;;;-5.58;70.57;98898.13;219117;1276;23535;-69
2022/03/03 04:11:07;;;;;;;63.80;29.80;;;;;;;-5.64;70.85;98890.98;219056;1277;22656;-69
2022/03/03 04:16:10;;;;;;;55.90;27.50;;;;;;;-5.69;70.82;98877.39;219145;1276;22855;-69
2022/03/03 04:21:13;;;;;;;64.60;28.50;;;;;;;-5.76;71.21;98872.52;219028;1277;22549;-68
2022/03/03 04:26:15;;;;;;;67.90;29.30;;;;;;;-5.81;71.27;98868.10;218875;1277;22734;-68
2022/03/03 04:31:18;;;;;;;64.10;31.00;;;;;;;-5.84;71.37;98866.98;219049;1276;23464;-69
2022/03/03 04:36:21;;;;;;;69.70;32.30;;;;;;;-5.84;71.48;98868.06;218841;1276;24197;-68
2022/03/03 04:41:23;;;;;;;71.40;33.30;;;;;;;-5.83;71.54;98869.84;218811;1277;23863;-69
2022/03/03 04:46:26;;;;;;;71.20;31.10;;;;;;;-5.80;71.76;98869.33;219178;1276;26082;-68
2022/03/03 04:51:36;;;;;;;67.70;32.10;;;;;;;-5.79;71.97;98862.23;219053;1276;25286;-68
2022/03/03 04:56:40;;;;;;;74.10;32.30;;;;;;;-5.78;71.95;98855.93;218866;1277;25706;-67
2022/03/03 05:01:42;;;;;;;72.10;33.50;;;;;;;-5.80;72.04;98855.55;219071;1276;25930;-67
2022/03/03 05:06:46;;;;;;;73.10;33.40;;;;;;;-5.80;72.25;98862.78;218918;1277;25934;-68
2022/03/03 05:11:49;;;;;;;63.20;32.20;;;;;;;-5.79;72.35;98862.51;218928;1276;23628;-68
2022/03/03 05:16:51;;;;;;;81.40;36.70;;;;;;;-5.78;72.56;98859.70;218893;1276;26331;-69
2022/03/03 05:21:53;;;;;;;76.60;35.60;;;;;;;-5.78;72.56;98861.60;218986;1277;22649;-69
2022/03/03 05:26:55;;;;;;;75.30;34.60;;;;;;;-5.79;72.58;98858.74;219009;1276;22677;-69
2022/03/03 05:31:58;;;;;;;79.50;33.80;;;;;;;-5.79;72.79;98862.40;219035;1276;22690;-69
2022/03/03 05:37:01;;;;;;;71.60;33.60;;;;;;;-5.80;72.84;98859.09;219251;1276;23060;-68
2022/03/03 05:42:03;;;;;;;80.60;36.10;;;;;;;-5.80;72.80;98853.75;218930;1277;25549;-68
2022/03/03 05:47:07;;;;;;;67.30;34.10;;;;;;;-5.80;72.74;98852.63;218987;1276;22636;-69
2022/03/03 05:52:10;;;;;;;79.50;35.40;;;;;;;-5.79;72.94;98850.77;219165;1276;22673;-68
2022/03/03 05:57:25;;;;;;;82.90;35.80;;;;;;;-5.79;72.86;98856.13;219154;1276;22669;-68
2022/03/03 06:02:29;;;;;;;74.90;35.60;;;;;;;-5.77;73.04;98857.19;219017;1276;22600;-69
2022/03/03 06:07:39;;;;;;;76.20;34.70;;;;;;;-5.74;73.26;98860.94;219056;1276;22649;-68
2022/03/03 06:12:51;;;;;;;82.70;38.90;;;;;;;-5.67;73.29;98855.28;218892;1277;24908;-68
2022/03/03 06:18:02;;;;;;;85.30;37.80;;;;;;;-5.60;73.38;98853.61;219155;1276;25596;-69
2022/03/03 06:23:08;;;;;;;82.00;39.90;;;;;;;-5.50;73.64;98849.95;219368;1276;22695;-68
2022/03/03 06:28:11;;;;;;;84.60;38.70;;;;;;;-5.38;73.69;98852.27;219204;1276;24340;-70
2022/03/03 06:33:14;;;;;;;78.10;37.40;;;;;;;-5.25;73.75;98854.52;218931;1278;22672;-69
2022/03/03 06:38:17;;;;;;;85.90;37.90;;;;;;;-5.13;73.71;98856.93;218989;1277;22704;-69
2022/03/03 06:43:19;;;;;;;85.40;37.50;;;;;;;-4.96;73.94;98854.33;218778;1276;23145;-70
2022/03/03 06:48:23;;;;;;;87.80;40.70;;;;;;;-4.74;73.99;98852.16;218831;1276;24233;-70
2022/03/03 06:53:28;;;;;;;86.00;42.20;;;;;;;-4.50;73.85;98850.92;218719;1276;23052;-68
2022/03/03 06:58:31;;;;;;;91.00;41.50;;;;;;;-4.27;73.75;98858.67;218471;1276;22559;-69
2022/03/03 07:03:34;;;;;;;79.20;38.20;;;;;;;-3.99;73.69;98856.98;219116;1276;22767;-69
2022/03/03 07:08:38;;;;;;;73.90;37.30;;;;;;;-3.75;73.57;98855.94;218718;1277;25010;-68
2022/03/03 07:13:43;;;;;;;81.20;41.00;;;;;;;-3.51;73.46;98851.55;219054;1276;22607;-69
2022/03/03 07:18:50;;;;;;;78.70;39.20;;;;;;;-3.24;73.30;98851.50;219003;1276;23096;-69
2022/03/03 07:24:12;;;;;;;82.90;39.30;;;;;;;-3.02;73.03;98845.64;218147;1276;405791;-68
2022/03/03 07:29:17;;;;;;;82.20;39.60;;;;;;;-2.80;73.08;98845.99;218287;1276;22594;-68
2022/03/03 07:34:28;;;;;;;79.90;42.40;;;;;;;-2.57;72.87;98843.73;218836;1276;22580;-71
2022/03/03 07:39:56;;;;;;;81.70;40.60;;;;;;;-2.31;72.59;98841.18;218564;1276;23334;-68
2022/03/03 07:45:03;;;;;;;85.60;41.20;;;;;;;-1.97;72.77;98837.91;217532;1276;24349;-69
2022/03/03 07:50:10;;;;;;;77.40;39.50;;;;;;;-1.66;72.31;98837.59;218583;1277;22552;-71
2022/03/03 07:55:21;;;;;;;79.50;39.30;;;;;;;-1.36;71.75;98832.87;218194;1276;25080;-68
2022/03/03 08:00:23;;;;;;;74.70;38.30;;;;;;;-1.06;71.31;98832.33;218572;1276;25499;-68
2022/03/03 08:05:30;;;;;;;76.30;39.60;;;;;;;-0.76;70.59;98828.34;218463;1276;22597;-69
2022/03/03 08:10:44;;;;;;;75.40;37.00;;;;;;;-0.39;70.58;98827.13;218283;1276;22569;-67
2022/03/03 08:15:46;;;;;;;71.60;36.60;;;;;;;-0.14;69.76;98822.83;218731;1276;22757;-68
2022/03/03 08:20:51;;;;;;;70.70;36.40;;;;;;;-0.11;68.80;98827.09;218663;1276;22574;-68
2022/03/03 08:25:55;;;;;;;73.20;36.80;;;;;;;-0.26;68.19;98827.02;218483;1276;22563;-70
2022/03/03 08:31:05;;;;;;;70.30;34.20;;;;;;;-0.41;68.09;98829.70;218560;1276;22566;-68
2022/03/03 08:36:44;;;;;;;72.10;36.00;;;;;;;-0.37;68.49;98830.84;218605;1276;22535;-70
2022/03/03 08:41:56;;;;;;;58.90;30.70;;;;;;;-0.18;68.59;98820.88;218333;1276;26608;-69
2022/03/03 08:47:22;;;;;;;73.00;36.20;;;;;;;0.02;67.78;98812.61;218494;1276;23130;-69
2022/03/03 08:52:29;;;;;;;62.30;31.80;;;;;;;0.25;68.07;98816.34;218643;1273;22739;-69
2022/03/03 08:57:32;;;;;;;59.70;32.30;;;;;;;0.58;67.63;98819.98;218247;1276;22614;-69
2022/03/03 09:02:35;;;;;;;63.00;31.80;;;;;;;0.87;66.94;98816.61;218337;1276;24392;-70
2022/03/03 09:07:38;;;;;;;51.70;29.40;;;;;;;1.13;66.71;98820.02;218760;1276;24299;-71
2022/03/03 09:12:42;;;;;;;48.90;28.20;;;;;;;1.44;66.21;98821.52;218797;1276;22885;-70
2022/03/03 09:17:44;;;;;;;53.90;27.60;;;;;;;1.67;65.25;98819.52;218587;1276;25834;-70
2022/03/03 09:22:47;;;;;;;54.40;29.00;;;;;;;1.86;64.57;98820.69;218017;1276;25413;-69
2022/03/03 09:27:49;;;;;;;54.10;25.20;;;;;;;2.02;64.10;98817.30;218340;1276;25319;-70
2022/03/03 09:32:52;;;;;;;41.90;24.10;;;;;;;2.21;63.52;98812.11;218603;1276;26113;-68
2022/03/03 09:37:54;;;;;;;43.90;25.20;;;;;;;2.39;62.84;98811.23;219982;1276;24222;-70
2022/03/03 09:43:00;;;;;;;37.10;22.30;;;;;;;2.55;62.37;98811.29;218482;1276;26601;-69
2022/03/03 09:48:07;;;;;;;41.80;21.60;;;;;;;2.65;61.41;98812.42;218653;1276;23690;-70
2022/03/03 09:53:16;;;;;;;34.80;19.90;;;;;;;2.65;60.78;98807.09;218439;1276;22626;-70
2022/03/03 09:58:21;;;;;;;35.50;20.10;;;;;;;2.68;60.24;98806.46;220087;1276;26522;-70
2022/03/03 10:03:32;;;;;;;32.20;19.20;;;;;;;2.79;60.16;98805.29;220323;1276;22588;-70
2022/03/03 10:08:42;;;;;;;32.90;20.60;;;;;;;2.98;59.76;98803.63;220073;1276;26409;-70
2022/03/03 10:14:07;;;;;;;35.20;21.50;;;;;;;3.14;59.25;98800.51;218140;1276;26221;-70
2022/03/03 10:19:49;;;;;;;33.00;20.60;;;;;;;3.28;58.87;98801.16;220129;1276;24500;-70
2022/03/03 10:25:35;;;;;;;30.60;17.70;;;;;;;3.26;58.00;98799.65;220102;1274;22591;-69
2022/03/03 10:31:25;;;;;;;41.80;22.50;;;;;;;3.32;57.78;98800.30;218729;1276;24407;-69
2022/03/03 10:36:34;;;;;;;28.30;16.80;;;;;;;3.48;57.51;98791.48;219491;1275;25264;-70
2022/03/03 10:41:46;;;;;;;30.20;17.80;;;;;;;3.63;56.66;98786.72;219869;1276;22560;-70
2022/03/03 10:47:10;;;;;;;28.50;16.90;;;;;;;3.76;56.09;98786.27;220069;1276;22561;-69
2022/03/03 10:52:25;;;;;;;29.80;18.10;;;;;;;3.86;55.47;98781.49;218733;1276;22493;-70
2022/03/03 10:57:44;;;;;;;25.50;16.20;;;;;;;3.93;54.56;98780.89;218739;1276;23413;-69
2022/03/03 11:02:53;;;;;;;27.90;16.50;;;;;;;3.92;53.53;98775.85;218398;1276;22546;-70
2022/03/03 11:07:58;;;;;;;27.70;15.50;;;;;;;3.89;53.12;98768.02;219999;1276;22540;-70
2022/03/03 11:13:02;;;;;;;24.00;15.60;;;;;;;3.99;52.95;98762.38;218725;1276;22611;-70
2022/03/03 11:18:05;;;;;;;25.90;15.40;;;;;;;4.07;51.71;98762.53;218592;1276;22572;-69
2022/03/03 11:23:08;;;;;;;23.80;14.20;;;;;;;4.13;51.41;98760.05;218741;1276;22738;-68
2022/03/03 11:28:15;;;;;;;23.00;13.90;;;;;;;4.19;50.55;98752.90;219506;1275;24286;-69
2022/03/03 11:33:27;;;;;;;28.30;14.60;;;;;;;4.27;50.27;98745.95;218780;1276;22539;-69
2022/03/03 11:38:54;;;;;;;25.50;15.60;;;;;;;4.38;50.01;98741.41;218720;1276;25458;-68
2022/03/03 11:44:07;;;;;;;30.00;16.00;;;;;;;4.55;50.17;98729.50;218579;1276;22630;-69
2022/03/03 11:49:11;;;;;;;23.20;14.30;;;;;;;4.76;49.82;98729.54;218829;1276;22972;-69
2022/03/03 11:54:14;;;;;;;24.00;14.40;;;;;;;4.88;49.19;98724.23;218602;1277;23111;-68
2022/03/03 11:59:17;;;;;;;25.50;15.20;;;;;;;5.04;48.55;98719.28;218897;1276;23938;-68
2022/03/03 12:04:20;;;;;;;24.80;14.70;;;;;;;5.22;48.06;98713.11;218595;1276;25944;-69
2022/03/03 12:09:30;;;;;;;23.00;13.90;;;;;;;5.43;47.84;98706.82;219054;1276;22632;-68
2022/03/03 12:14:35;;;;;;;23.20;14.70;;;;;;;5.56;47.01;98705.58;219212;1276;25417;-70
2022/03/03 12:19:38;;;;;;;21.20;13.80;;;;;;;5.70;46.79;98697.63;220112;1276;25386;-70
2022/03/03 12:24:41;;;;;;;23.20;14.90;;;;;;;5.78;46.09;98696.39;219547;1276;24484;-70
2022/03/03 12:29:48;;;;;;;24.90;15.90;;;;;;;5.79;46.23;98694.54;218536;1276;24257;-70
2022/03/03 12:35:26;;;;;;;25.20;15.70;;;;;;;5.90;46.59;98683.73;218717;1276;22629;-69
2022/03/03 12:40:36;;;;;;;28.00;16.00;;;;;;;5.96;46.20;98684.65;218793;1276;26138;-70
2022/03/03 12:46:08;;;;;;;26.60;17.30;;;;;;;5.89;45.78;98693.14;218629;1275;24241;-70
2022/03/03 12:51:25;;;;;;;27.60;15.20;;;;;;;5.71;45.61;98688.64;218738;1276;25252;-70
2022/03/03 12:56:28;;;;;;;24.30;15.70;;;;;;;5.58;46.00;98689.75;218652;1276;24219;-70
2022/03/03 13:01:30;;;;;;;24.80;15.10;;;;;;;5.52;45.58;98689.17;218867;1276;23740;-70
2022/03/03 13:06:33;;;;;;;25.00;14.90;;;;;;;5.52;45.17;98685.30;218672;1276;26377;-70
2022/03/03 13:11:35;;;;;;;23.80;15.00;;;;;;;5.68;45.05;98676.71;218796;1276;22650;-69
2022/03/03 13:16:39;;;;;;;23.90;14.60;;;;;;;5.80;44.49;98667.16;218721;1276;25448;-69
2022/03/03 13:21:43;;;;;;;24.50;15.40;;;;;;;5.85;44.15;98666.50;219047;1276;22808;-69
2022/03/03 13:26:47;;;;;;;25.30;15.70;;;;;;;5.84;44.13;98667.60;218819;1276;22580;-70
2022/03/03 13:31:51;;;;;;;22.30;15.00;;;;;;;5.71;43.86;98663.65;218807;1277;24993;-70
2022/03/03 13:36:55;;;;;;;22.60;14.10;;;;;;;5.58;43.77;98661.63;218696;1276;22492;-70
2022/03/03 13:42:11;;;;;;;23.00;15.60;;;;;;;5.52;43.78;98656.92;218705;1276;23901;-70
2022/03/03 13:47:25;;;;;;;25.50;15.20;;;;;;;5.46;43.62;98649.13;219043;1276;22547;-70
2022/03/03 13:52:30;;;;;;;27.70;15.90;;;;;;;5.41;43.37;98643.84;218796;1276;22509;-69
2022/03/03 13:57:47;;;;;;;24.10;15.20;;;;;;;5.33;43.44;98638.75;218691;1276;22475;-69
2022/03/03 14:02:53;;;;;;;25.30;14.50;;;;;;;5.27;43.19;98637.81;218653;1276;22544;-69
2022/03/03 14:08:53;;;;;;;25.60;16.20;;;;;;;5.20;43.45;98634.10;218735;1276;22861;-69
2022/03/03 14:14:06;;;;;;;29.00;16.30;;;;;;;5.09;43.20;98627.71;217766;1276;22572;-70
2022/03/03 14:19:09;;;;;;;25.50;16.40;;;;;;;5.03;43.77;98621.52;218537;1276;22592;-69
2022/03/03 14:24:13;;;;;;;28.50;17.70;;;;;;;4.97;43.75;98618.51;218706;1276;24331;-69
2022/03/03 14:29:29;;;;;;;31.70;16.00;;;;;;;4.89;43.65;98616.00;218723;1276;25161;-69
2022/03/03 14:34:32;;;;;;;23.20;14.40;;;;;;;4.79;43.47;98613.01;218763;1276;25317;-69
2022/03/03 14:39:39;;;;;;;21.70;14.70;;;;;;;4.71;43.60;98608.23;219058;1276;25435;-69
2022/03/03 14:44:44;;;;;;;26.50;15.60;;;;;;;4.62;43.63;98606.14;218639;1276;22537;-68
2022/03/03 14:49:47;;;;;;;24.10;15.20;;;;;;;4.51;43.67;98606.59;218866;1276;24209;-69
2022/03/03 14:54:49;;;;;;;24.80;15.10;;;;;;;4.41;43.61;98609.57;218632;1277;25410;-68
2022/03/03 14:59:52;;;;;;;21.20;14.00;;;;;;;4.33;43.73;98610.19;218603;1276;22643;-68
2022/03/03 15:04:54;;;;;;;23.50;14.60;;;;;;;4.23;44.09;98608.60;218442;1276;22556;-68
2022/03/03 15:09:59;;;;;;;24.80;14.50;;;;;;;4.11;44.19;98604.94;218541;1276;24260;-69
2022/03/03 15:15:03;;;;;;;24.90;14.90;;;;;;;4.01;44.45;98606.52;218522;1277;24363;-69
2022/03/03 15:20:07;;;;;;;26.10;14.70;;;;;;;3.90;44.75;98605.40;218697;1276;22557;-68
2022/03/03 15:25:09;;;;;;;25.20;15.70;;;;;;;3.77;44.95;98597.58;218849;1276;22597;-69
2022/03/03 15:30:12;;;;;;;24.50;14.80;;;;;;;3.68;45.21;98602.73;218888;1276;23738;-68
2022/03/03 15:40:36;;;;;;;26.80;15.80;;;;;;;3.46;45.40;98597.41;218811;1277;23801;-69
2022/03/03 15:45:38;;;;;;;29.20;16.60;;;;;;;3.34;45.35;98598.18;218890;1276;26451;-67
2022/03/03 15:50:44;;;;;;;30.10;15.80;;;;;;;3.23;45.64;98603.80;218702;1276;22538;-69
2022/03/03 15:55:46;;;;;;;26.40;15.90;;;;;;;3.10;45.81;98601.55;218691;1276;25384;-69
2022/03/03 16:00:48;;;;;;;30.60;16.70;;;;;;;2.97;46.04;98602.37;218979;1276;22536;-69
2022/03/03 16:05:51;;;;;;;32.20;17.70;;;;;;;2.83;46.26;98608.38;219112;1276;22579;-69
2022/03/03 16:10:54;;;;;;;33.80;18.40;;;;;;;2.70;46.58;98611.02;218884;1276;25382;-69
2022/03/03 16:15:56;;;;;;;30.20;18.40;;;;;;;2.54;46.88;98608.48;218904;1276;24355;-69
2022/03/03 16:20:59;;;;;;;31.90;17.40;;;;;;;2.37;47.16;98605.10;218805;1276;22545;-70
2022/03/03 16:26:02;;;;;;;29.50;16.70;;;;;;;2.22;47.56;98611.13;219032;1276;22557;-69
2022/03/03 16:31:43;;;;;;;30.50;17.20;;;;;;;2.04;47.74;98611.39;218950;1276;22996;-69
2022/03/03 16:36:46;;;;;;;37.80;20.90;;;;;;;1.87;48.27;98610.54;219153;1276;25370;-70
2022/03/03 16:41:54;;;;;;;35.00;18.20;;;;;;;1.73;48.53;98609.84;219236;1276;23012;-68
2022/03/03 16:46:56;;;;;;;35.10;18.00;;;;;;;1.59;48.94;98607.56;218717;1276;22538;-70
2022/03/03 16:51:59;;;;;;;34.10;17.90;;;;;;;1.45;49.27;98611.55;219026;1276;22579;-68
2022/03/03 16:57:02;;;;;;;35.00;19.00;;;;;;;1.30;49.72;98612.09;218762;1276;22719;-69
2022/03/03 17:02:05;;;;;;;37.20;20.60;;;;;;;1.13;50.00;98611.27;218972;1276;22557;-68
2022/03/03 17:07:10;;;;;;;36.00;19.60;;;;;;;0.96;49.93;98610.20;218980;1276;22553;-69
2022/03/03 17:12:16;;;;;;;41.00;20.60;;;;;;;0.83;50.12;98617.08;218751;1277;24610;-69
2022/03/03 17:17:55;;;;;;;38.70;20.50;;;;;;;0.67;50.24;98623.50;218680;1277;24292;-69
2022/03/03 17:23:36;;;;;;;34.00;18.40;;;;;;;0.48;50.72;98626.95;218697;1278;25385;-69
2022/03/03 17:28:48;;;;;;;37.30;19.20;;;;;;;0.34;50.82;98633.93;218953;1276;22538;-69
2022/03/03 17:33:53;;;;;;;40.20;19.10;;;;;;;0.20;51.10;98638.63;218877;1276;22578;-69
2022/03/03 17:38:55;;;;;;;42.80;20.40;;;;;;;0.08;51.40;98642.52;218852;1276;22548;-69
2022/03/03 17:43:58;;;;;;;37.70;18.80;;;;;;;-0.06;51.96;98641.45;218995;1276;22697;-69
2022/03/03 17:49:01;;;;;;;36.00;19.30;;;;;;;-0.17;52.04;98638.48;218919;1276;22553;-69
2022/03/03 17:54:12;;;;;;;35.20;19.00;;;;;;;-0.25;52.40;98637.86;218983;1276;22617;-69
2022/03/03 17:59:15;;;;;;;40.90;19.70;;;;;;;-0.32;52.72;98637.66;219041;1277;22564;-69
2022/03/03 18:04:17;;;;;;;41.50;20.50;;;;;;;-0.40;52.94;98640.95;218872;1276;24304;-69
2022/03/03 18:09:23;;;;;;;50.00;23.00;;;;;;;-0.50;53.17;98643.33;219132;1276;24342;-68
2022/03/03 18:14:25;;;;;;;50.20;24.60;;;;;;;-0.59;53.31;98641.15;219164;1276;22967;-70
2022/03/03 18:19:27;;;;;;;43.80;23.90;;;;;;;-0.67;53.58;98643.20;218973;1276;24894;-69
2022/03/03 18:24:31;;;;;;;50.00;25.20;;;;;;;-0.75;53.74;98641.69;219939;1276;22697;-69
2022/03/03 18:29:34;;;;;;;52.50;25.70;;;;;;;-0.85;53.86;98654.64;219148;1277;22757;-69
2022/03/03 18:34:39;;;;;;;54.40;24.40;;;;;;;-0.92;54.49;98660.82;219045;1275;22543;-69
2022/03/03 18:39:45;;;;;;;65.20;29.10;;;;;;;-0.96;55.37;98673.32;219251;1276;22729;-69
2022/03/03 18:44:48;;;;;;;62.10;29.80;;;;;;;-0.98;56.14;98677.86;219858;1276;25624;-69
2022/03/03 18:49:50;;;;;;;46.40;25.20;;;;;;;-0.92;57.17;98680.16;219071;1276;25400;-70
2022/03/03 18:54:52;;;;;;;41.60;22.70;;;;;;;-0.77;58.23;98689.86;218977;1276;22724;-69
2022/03/03 18:59:55;;;;;;;41.80;22.20;;;;;;;-0.65;59.03;98697.08;218673;1277;22735;-69
2022/03/03 19:04:57;;;;;;;42.30;21.60;;;;;;;-0.60;59.93;98693.18;218884;1277;25398;-69
2022/03/03 19:09:59;;;;;;;45.00;23.20;;;;;;;-0.60;60.82;98703.27;218767;1276;25546;-69
2022/03/03 19:15:03;;;;;;;48.30;25.20;;;;;;;-0.66;61.88;98708.61;218699;1276;24285;-68
2022/03/03 19:20:07;;;;;;;51.50;28.10;;;;;;;-0.75;62.42;98711.66;218853;1276;23020;-69
2022/03/03 19:25:10;;;;;;;50.30;25.80;;;;;;;-0.85;63.05;98718.20;218614;1276;515306;-69
2022/03/03 19:30:12;;;;;;;56.70;26.10;;;;;;;-0.94;63.66;98721.32;218994;1276;23486;-69
2022/03/03 19:35:15;;;;;;;55.30;26.90;;;;;;;-1.03;64.60;98731.41;219230;1276;22624;-70
2022/03/03 19:40:17;;;;;;;56.00;27.20;;;;;;;-1.13;65.21;98732.09;219024;1277;22617;-69
2022/03/03 19:45:20;;;;;;;50.50;25.30;;;;;;;-1.22;66.02;98734.15;219071;1276;25346;-69
2022/03/03 19:50:22;;;;;;;58.10;29.20;;;;;;;-1.31;66.92;98742.13;218919;1277;24258;-69
2022/03/03 19:55:25;;;;;;;63.20;29.30;;;;;;;-1.37;67.56;98750.63;218911;1276;24266;-68
2022/03/03 20:00:28;;;;;;;60.00;28.80;;;;;;;-1.42;68.16;98759.33;218992;1277;25404;-69
2022/03/03 20:05:31;;;;;;;55.60;29.00;;;;;;;-1.47;69.17;98766.02;218946;1277;22527;-69
2022/03/03 20:15:55;;;;;;;63.40;29.60;;;;;;;-1.51;70.34;98769.40;218992;1277;24276;-69
2022/03/03 20:20:57;;;;;;;64.70;30.50;;;;;;;-1.50;70.42;98769.46;218957;1277;22564;-69
2022/03/03 20:26:02;;;;;;;66.50;30.50;;;;;;;-1.47;70.44;98774.51;218910;1276;26566;-69
2022/03/03 20:31:06;;;;;;;63.90;30.70;;;;;;;-1.41;70.56;98779.62;219225;1277;24229;-69
2022/03/03 20:36:08;;;;;;;60.80;29.70;;;;;;;-1.33;70.29;98782.93;218821;1277;24299;-68
2022/03/03 20:41:11;;;;;;;52.50;25.70;;;;;;;-1.27;70.24;98786.25;218885;1278;22582;-70
2022/03/03 20:46:13;;;;;;;62.10;29.20;;;;;;;-1.20;70.23;98788.27;219057;1276;22568;-69
2022/03/03 20:51:16;;;;;;;57.00;27.30;;;;;;;-1.13;69.91;98795.80;218889;1277;22621;-68
2022/03/03 20:56:18;;;;;;;60.30;29.10;;;;;;;-1.07;69.93;98796.85;219049;1278;25207;-69
2022/03/03 21:01:25;;;;;;;55.80;27.20;;;;;;;-1.01;69.73;98800.05;218672;1278;22806;-68
2022/03/03 21:06:28;;;;;;;53.10;27.90;;;;;;;-0.96;69.79;98802.09;218809;1277;22697;-67
2022/03/03 21:11:31;;;;;;;55.20;27.00;;;;;;;-0.94;69.75;98807.70;218740;1277;24242;-69
2022/03/03 21:16:33;;;;;;;55.10;26.00;;;;;;;-0.92;69.39;98806.70;218906;1278;22755;-68
2022/03/03 21:21:37;;;;;;;51.40;24.30;;;;;;;-0.89;69.40;98806.73;218995;1277;22547;-70
2022/03/03 21:26:42;;;;;;;47.00;23.70;;;;;;;-0.86;69.36;98809.05;219043;1277;22546;-69
2022/03/03 21:31:45;;;;;;;44.90;23.10;;;;;;;-0.85;69.27;98809.09;219178;1276;23006;-69
2022/03/03 21:36:48;;;;;;;42.90;20.90;;;;;;;-0.87;69.05;98806.04;218962;1278;22566;-69
2022/03/03 21:41:51;;;;;;;40.20;19.80;;;;;;;-0.88;68.87;98810.90;218845;1277;24171;-68
2022/03/03 21:46:54;;;;;;;39.90;19.90;;;;;;;-0.89;68.68;98812.60;219111;1277;22795;-69
2022/03/03 21:52:06;;;;;;;37.70;19.10;;;;;;;-0.91;68.44;98811.43;218994;1277;25398;-69
2022/03/03 21:57:09;;;;;;;40.60;19.20;;;;;;;-0.90;68.51;98816.41;218894;1277;24241;-68
2022/03/03 22:02:18;;;;;;;34.00;16.80;;;;;;;-0.89;68.47;98814.51;218928;1277;22831;-69
2022/03/03 22:07:21;;;;;;;36.00;17.10;;;;;;;-0.89;68.27;98814.52;218919;1277;22551;-68
2022/03/03 22:12:24;;;;;;;32.90;16.10;;;;;;;-0.90;67.87;98813.66;218928;1277;24118;-69
2022/03/03 22:17:26;;;;;;;28.70;15.40;;;;;;;-0.91;67.86;98811.85;218996;1277;24254;-68
2022/03/03 22:22:28;;;;;;;34.70;16.70;;;;;;;-0.92;67.97;98814.40;219005;1277;22771;-68
2022/03/03 22:27:31;;;;;;;29.90;16.00;;;;;;;-0.94;68.14;98818.09;218888;1277;24352;-69
2022/03/03 22:32:35;;;;;;;31.60;16.20;;;;;;;-0.98;67.96;98819.63;218743;1277;22628;-68
2022/03/03 22:37:39;;;;;;;32.70;16.80;;;;;;;-1.00;68.22;98821.73;218944;1277;24263;-69
2022/03/03 22:42:41;;;;;;;29.20;15.30;;;;;;;-0.99;68.16;98819.34;218923;1277;22547;-69
2022/03/03 22:47:44;;;;;;;29.70;15.40;;;;;;;-0.97;68.28;98818.80;218830;1277;22593;-70
2022/03/03 22:52:47;;;;;;;27.20;14.40;;;;;;;-0.97;68.18;98819.05;218726;1277;25665;-68
2022/03/03 22:57:59;;;;;;;30.30;16.30;;;;;;;-0.96;68.09;98820.45;218708;1277;24589;-68
2022/03/03 23:08:29;;;;;;;34.00;17.40;;;;;;;-0.96;67.53;98816.83;218783;1277;22752;-69
2022/03/03 23:13:32;;;;;;;33.70;18.00;;;;;;;-0.94;67.45;98819.55;218852;1277;22623;-68
2022/03/03 23:18:35;;;;;;;29.80;15.80;;;;;;;-0.93;67.55;98815.63;218888;1276;22739;-69
2022/03/03 23:23:39;;;;;;;32.10;17.30;;;;;;;-0.91;67.56;98805.17;218875;1277;22648;-68
2022/03/03 23:28:43;;;;;;;34.70;17.90;;;;;;;-0.89;67.70;98806.25;218952;1276;23897;-68
2022/03/03 23:33:46;;;;;;;34.80;18.50;;;;;;;-0.89;67.38;98809.09;218987;1276;22752;-70